sensor_id;sensor_type;location;lat;lon;timestamp;P1;P2;P0
62599;PMS7003;48671;48.922;2.346;2024-03-23T00:55:29;12.25;8.25;6.00
62599;PMS7003;48671;48.922;2.346;2024-03-23T00:57:54;12.50;12.25;7.00
62599;PMS7003;48671;48.922;2.346;2024-03-23T01:00:20;14.00;10.00;6.75
62599;PMS7003;48671;48.922;2.346;2024-03-23T01:02:45;13.25;10.50;8.00
62599;PMS7003;48671;48.922;2.346;2024-03-23T01:05:11;13.25;9.00;7.00
62599;PMS7003;48671;48.922;2.346;2024-03-23T01:07:36;14.75;9.00;6.75
62599;PMS7003;48671;48.922;2.346;2024-03-23T01:10:01;13.00;12.33;8.33
62599;PMS7003;48671;48.922;2.346;2024-03-23T01:12:27;15.75;12.75;7.50
62599;PMS7003;48671;48.922;2.346;2024-03-23T01:14:52;18.33;13.00;8.00
62599;PMS7003;48671;48.922;2.346;2024-03-23T01:17:17;13.25;10.50;8.00
62599;PMS7003;48671;48.922;2.346;2024-03-23T01:19:43;13.50;13.25;8.75
62599;PMS7003;48671;48.922;2.346;2024-03-23T01:22:08;20.00;11.75;7.75
62599;PMS7003;48671;48.922;2.346;2024-03-23T01:24:35;15.25;13.25;8.50
62599;PMS7003;48671;48.922;2.346;2024-03-23T01:27:00;21.00;13.00;8.00
62599;PMS7003;48671;48.922;2.346;2024-03-23T01:29:26;17.75;14.00;9.00
62599;PMS7003;48671;48.922;2.346;2024-03-23T01:31:51;13.75;8.50;7.00
62599;PMS7003;48671;48.922;2.346;2024-03-23T01:34:16;13.00;8.00;7.00
62599;PMS7003;48671;48.922;2.346;2024-03-23T01:36:42;19.00;12.00;8.00
62599;PMS7003;48671;48.922;2.346;2024-03-23T01:39:07;15.00;9.00;7.75
62599;PMS7003;48671;48.922;2.346;2024-03-23T01:41:34;13.50;11.00;8.00
62599;PMS7003;48671;48.922;2.346;2024-03-23T01:44:00;13.50;11.00;8.50
62599;PMS7003;48671;48.922;2.346;2024-03-23T01:46:30;18.00;12.00;8.50
62599;PMS7003;48671;48.922;2.346;2024-03-23T01:48:56;12.00;9.50;6.00
62599;PMS7003;48671;48.922;2.346;2024-03-23T01:51:21;15.00;12.25;7.00
62599;PMS7003;48671;48.922;2.346;2024-03-23T01:53:48;15.25;12.75;7.25
62599;PMS7003;48671;48.922;2.346;2024-03-23T01:56:14;17.00;9.75;6.00
62599;PMS7003;48671;48.922;2.346;2024-03-23T01:58:39;7.25;7.25;5.00
62599;PMS7003;48671;48.922;2.346;2024-03-23T02:01:04;11.25;7.25;4.50
62599;PMS7003;48671;48.922;2.346;2024-03-23T02:03:30;13.75;8.50;6.00
62599;PMS7003;48671;48.922;2.346;2024-03-23T02:05:56;8.25;8.00;5.50
62599;PMS7003;48671;48.922;2.346;2024-03-23T02:08:22;9.75;8.00;6.50
62599;PMS7003;48671;48.922;2.346;2024-03-23T02:10:48;12.25;8.50;6.00
62599;PMS7003;48671;48.922;2.346;2024-03-23T02:13:15;9.75;7.00;4.00
62599;PMS7003;48671;48.922;2.346;2024-03-23T02:15:41;15.50;6.00;3.75
62599;PMS7003;48671;48.922;2.346;2024-03-23T02:18:07;8.50;6.00;4.00
62599;PMS7003;48671;48.922;2.346;2024-03-23T02:20:36;12.00;7.00;4.00
62599;PMS7003;48671;48.922;2.346;2024-03-23T02:23:02;4.50;3.25;2.75
62599;PMS7003;48671;48.922;2.346;2024-03-23T02:25:30;5.25;4.00;2.50
62599;PMS7003;48671;48.922;2.346;2024-03-23T02:27:56;7.00;3.50;2.00
62599;PMS7003;48671;48.922;2.346;2024-03-23T02:30:23;4.75;4.00;1.75
62599;PMS7003;48671;48.922;2.346;2024-03-23T02:32:49;3.75;2.75;1.50
62599;PMS7003;48671;48.922;2.346;2024-03-23T02:35:14;3.00;2.25;1.00
62599;PMS7003;48671;48.922;2.346;2024-03-23T02:37:39;5.00;3.50;1.75
62599;PMS7003;48671;48.922;2.346;2024-03-23T02:40:05;2.00;2.00;1.67
62599;PMS7003;48671;48.922;2.346;2024-03-23T02:42:30;2.00;2.00;1.00
62599;PMS7003;48671;48.922;2.346;2024-03-23T02:44:56;2.00;2.00;1.00
62599;PMS7003;48671;48.922;2.346;2024-03-23T02:47:23;1.00;1.00;1.00
62599;PMS7003;48671;48.922;2.346;2024-03-23T02:49:49;3.00;1.50;1.00
62599;PMS7003;48671;48.922;2.346;2024-03-23T02:52:14;1.25;1.25;1.00
62599;PMS7003;48671;48.922;2.346;2024-03-23T02:54:40;6.25;2.00;1.00
62599;PMS7003;48671;48.922;2.346;2024-03-23T02:57:07;3.50;3.00;1.00
62599;PMS7003;48671;48.922;2.346;2024-03-23T02:59:32;5.50;2.00;1.00
62599;PMS7003;48671;48.922;2.346;2024-03-23T03:01:57;3.33;0.00;0.00
62599;PMS7003;48671;48.922;2.346;2024-03-23T03:04:24;3.25;1.50;0.50
62599;PMS7003;48671;48.922;2.346;2024-03-23T03:06:50;2.00;1.33;1.00
62599;PMS7003;48671;48.922;2.346;2024-03-23T03:09:15;2.75;2.50;2.00
62599;PMS7003;48671;48.922;2.346;2024-03-23T03:11:40;2.00;2.00;1.00
62599;PMS7003;48671;48.922;2.346;2024-03-23T03:14:06;7.50;4.00;2.00
62599;PMS7003;48671;48.922;2.346;2024-03-23T03:16:32;3.00;2.75;1.00
62599;PMS7003;48671;48.922;2.346;2024-03-23T03:18:58;4.50;2.00;1.00
62599;PMS7003;48671;48.922;2.346;2024-03-23T03:21:23;4.75;1.00;1.00
62599;PMS7003;48671;48.922;2.346;2024-03-23T03:23:49;4.00;2.00;1.00
62599;PMS7003;48671;48.922;2.346;2024-03-23T03:26:15;6.75;1.75;0.50
62599;PMS7003;48671;48.922;2.346;2024-03-23T03:28:43;2.00;2.00;1.00
62599;PMS7003;48671;48.922;2.346;2024-03-23T03:31:14;7.00;3.00;2.00
62599;PMS7003;48671;48.922;2.346;2024-03-23T03:33:40;3.75;2.00;1.00
62599;PMS7003;48671;48.922;2.346;2024-03-23T03:36:05;6.50;2.75;2.00
62599;PMS7003;48671;48.922;2.346;2024-03-23T03:38:31;4.50;2.50;1.00
62599;PMS7003;48671;48.922;2.346;2024-03-23T03:40:56;1.75;1.75;0.00
62599;PMS7003;48671;48.922;2.346;2024-03-23T03:43:23;5.00;2.25;1.25
62599;PMS7003;48671;48.922;2.346;2024-03-23T03:45:55;2.75;2.75;1.00
62599;PMS7003;48671;48.922;2.346;2024-03-23T03:48:22;3.25;2.00;1.00
62599;PMS7003;48671;48.922;2.346;2024-03-23T03:50:47;3.00;1.00;1.00
62599;PMS7003;48671;48.922;2.346;2024-03-23T03:53:12;3.00;3.00;1.00
62599;PMS7003;48671;48.922;2.346;2024-03-23T03:55:38;4.25;2.50;1.75
62599;PMS7003;48671;48.922;2.346;2024-03-23T03:58:03;6.00;1.75;1.00
62599;PMS7003;48671;48.922;2.346;2024-03-23T04:00:31;2.25;2.00;1.00
62599;PMS7003;48671;48.922;2.346;2024-03-23T04:02:57;5.00;2.00;1.00
62599;PMS7003;48671;48.922;2.346;2024-03-23T04:05:22;4.75;3.75;2.00
62599;PMS7003;48671;48.922;2.346;2024-03-23T04:07:48;4.00;1.75;1.00
62599;PMS7003;48671;48.922;2.346;2024-03-23T04:10:14;5.75;2.00;1.00
62599;PMS7003;48671;48.922;2.346;2024-03-23T04:12:40;1.25;1.25;0.25
62599;PMS7003;48671;48.922;2.346;2024-03-23T04:15:05;6.25;4.00;1.50
62599;PMS7003;48671;48.922;2.346;2024-03-23T04:17:31;6.25;2.00;2.00
62599;PMS7003;48671;48.922;2.346;2024-03-23T04:19:59;3.00;1.00;1.00
62599;PMS7003;48671;48.922;2.346;2024-03-23T04:22:25;6.75;2.00;1.00
62599;PMS7003;48671;48.922;2.346;2024-03-23T04:24:54;6.00;4.50;1.00
62599;PMS7003;48671;48.922;2.346;2024-03-23T04:27:23;6.25;2.00;1.00
62599;PMS7003;48671;48.922;2.346;2024-03-23T04:29:49;4.50;2.25;1.75
62599;PMS7003;48671;48.922;2.346;2024-03-23T04:32:20;3.00;3.00;1.75
62599;PMS7003;48671;48.922;2.346;2024-03-23T04:34:45;6.00;3.00;1.00
62599;PMS7003;48671;48.922;2.346;2024-03-23T04:37:11;12.25;1.00;1.00
62599;PMS7003;48671;48.922;2.346;2024-03-23T04:39:36;3.50;3.50;1.00
62599;PMS7003;48671;48.922;2.346;2024-03-23T04:42:02;4.50;2.00;1.25
62599;PMS7003;48671;48.922;2.346;2024-03-23T04:44:28;4.25;1.25;0.25
62599;PMS7003;48671;48.922;2.346;2024-03-23T04:46:54;5.25;2.50;2.00
62599;PMS7003;48671;48.922;2.346;2024-03-23T04:49:19;7.00;3.50;2.00
62599;PMS7003;48671;48.922;2.346;2024-03-23T04:51:45;5.00;2.00;1.00
62599;PMS7003;48671;48.922;2.346;2024-03-23T04:54:14;1.75;1.75;1.00
62599;PMS7003;48671;48.922;2.346;2024-03-23T04:56:40;3.00;3.00;2.00
62599;PMS7003;48671;48.922;2.346;2024-03-23T04:59:05;4.25;2.75;1.00
62599;PMS7003;48671;48.922;2.346;2024-03-23T05:01:33;2.25;1.75;0.50
62599;PMS7003;48671;48.922;2.346;2024-03-23T05:03:59;6.00;2.00;1.00
62599;PMS7003;48671;48.922;2.346;2024-03-23T05:06:25;5.75;2.25;1.00
62599;PMS7003;48671;48.922;2.346;2024-03-23T05:08:51;9.25;3.50;1.50
62599;PMS7003;48671;48.922;2.346;2024-03-23T05:11:16;5.25;2.00;0.00
62599;PMS7003;48671;48.922;2.346;2024-03-23T05:13:42;2.00;2.00;1.00
62599;PMS7003;48671;48.922;2.346;2024-03-23T05:16:08;5.25;1.25;1.00
62599;PMS7003;48671;48.922;2.346;2024-03-23T05:18:33;10.00;2.00;1.00
62599;PMS7003;48671;48.922;2.346;2024-03-23T05:20:59;2.75;1.75;1.00
62599;PMS7003;48671;48.922;2.346;2024-03-23T05:23:25;7.25;2.25;0.00
62599;PMS7003;48671;48.922;2.346;2024-03-23T05:25:51;5.25;2.00;1.00
62599;PMS7003;48671;48.922;2.346;2024-03-23T05:28:19;6.00;1.00;1.00
62599;PMS7003;48671;48.922;2.346;2024-03-23T05:30:52;1.75;1.00;0.75
62599;PMS7003;48671;48.922;2.346;2024-03-23T05:33:21;2.00;1.25;1.00
62599;PMS7003;48671;48.922;2.346;2024-03-23T05:35:46;6.75;0.75;0.00
62599;PMS7003;48671;48.922;2.346;2024-03-23T05:38:12;1.00;0.75;0.75
62599;PMS7003;48671;48.922;2.346;2024-03-23T05:40:38;2.00;1.00;0.75
62599;PMS7003;48671;48.922;2.346;2024-03-23T05:43:08;3.75;0.00;0.00
62599;PMS7003;48671;48.922;2.346;2024-03-23T05:45:34;2.50;0.50;0.25
62599;PMS7003;48671;48.922;2.346;2024-03-23T05:47:59;2.50;0.00;0.00
62599;PMS7003;48671;48.922;2.346;2024-03-23T05:50:25;2.75;0.25;0.00
62599;PMS7003;48671;48.922;2.346;2024-03-23T05:52:50;2.00;2.00;1.00
62599;PMS7003;48671;48.922;2.346;2024-03-23T05:55:15;1.00;1.00;0.00
62599;PMS7003;48671;48.922;2.346;2024-03-23T05:57:41;4.00;1.75;0.75
62599;PMS7003;48671;48.922;2.346;2024-03-23T06:00:08;1.00;1.00;0.00
62599;PMS7003;48671;48.922;2.346;2024-03-23T06:02:44;2.00;1.00;0.00
62599;PMS7003;48671;48.922;2.346;2024-03-23T06:05:10;1.00;1.00;0.00
62599;PMS7003;48671;48.922;2.346;2024-03-23T06:07:36;2.00;1.00;0.00
62599;PMS7003;48671;48.922;2.346;2024-03-23T06:10:01;0.00;0.00;0.00
62599;PMS7003;48671;48.922;2.346;2024-03-23T06:12:26;2.50;1.00;0.00
62599;PMS7003;48671;48.922;2.346;2024-03-23T06:14:52;2.00;0.00;0.00
62599;PMS7003;48671;48.922;2.346;2024-03-23T06:17:17;2.00;1.00;0.25
62599;PMS7003;48671;48.922;2.346;2024-03-23T06:19:42;0.75;0.00;0.00
62599;PMS7003;48671;48.922;2.346;2024-03-23T06:22:08;2.25;1.00;0.00
62599;PMS7003;48671;48.922;2.346;2024-03-23T06:24:33;0.00;0.00;0.00
62599;PMS7003;48671;48.922;2.346;2024-03-23T06:26:58;0.33;0.33;0.00
62599;PMS7003;48671;48.922;2.346;2024-03-23T06:29:24;0.75;0.75;0.00
62599;PMS7003;48671;48.922;2.346;2024-03-23T06:31:55;5.75;2.00;0.75
62599;PMS7003;48671;48.922;2.346;2024-03-23T06:34:21;0.00;0.00;0.00
62599;PMS7003;48671;48.922;2.346;2024-03-23T06:36:47;0.00;0.00;0.00
62599;PMS7003;48671;48.922;2.346;2024-03-23T06:39:14;3.00;0.00;0.00
62599;PMS7003;48671;48.922;2.346;2024-03-23T06:41:41;0.75;0.00;0.00
62599;PMS7003;48671;48.922;2.346;2024-03-23T06:44:16;4.00;0.75;0.00
62599;PMS7003;48671;48.922;2.346;2024-03-23T06:46:41;0.50;0.00;0.00
62599;PMS7003;48671;48.922;2.346;2024-03-23T06:49:06;1.50;1.50;0.25
62599;PMS7003;48671;48.922;2.346;2024-03-23T06:51:32;1.00;1.00;0.00
62599;PMS7003;48671;48.922;2.346;2024-03-23T06:53:57;1.00;1.00;0.00
62599;PMS7003;48671;48.922;2.346;2024-03-23T06:56:23;4.50;0.75;0.00
62599;PMS7003;48671;48.922;2.346;2024-03-23T06:58:48;1.00;1.00;0.00
62599;PMS7003;48671;48.922;2.346;2024-03-23T07:01:13;2.00;0.33;0.00
62599;PMS7003;48671;48.922;2.346;2024-03-23T07:03:39;0.00;0.00;0.00
62599;PMS7003;48671;48.922;2.346;2024-03-23T07:06:04;0.00;0.00;0.00
62599;PMS7003;48671;48.922;2.346;2024-03-23T07:08:29;0.75;0.75;0.00
62599;PMS7003;48671;48.922;2.346;2024-03-23T07:10:55;0.00;0.00;0.00
62599;PMS7003;48671;48.922;2.346;2024-03-23T07:13:20;2.00;0.33;0.00
62599;PMS7003;48671;48.922;2.346;2024-03-23T07:15:50;2.00;0.00;0.00
62599;PMS7003;48671;48.922;2.346;2024-03-23T07:18:16;0.00;0.00;0.00
62599;PMS7003;48671;48.922;2.346;2024-03-23T07:20:42;0.00;0.00;0.00
62599;PMS7003;48671;48.922;2.346;2024-03-23T07:23:07;1.67;1.00;0.00
62599;PMS7003;48671;48.922;2.346;2024-03-23T07:25:32;0.67;0.67;0.00
62599;PMS7003;48671;48.922;2.346;2024-03-23T07:27:58;1.00;1.00;0.00
62599;PMS7003;48671;48.922;2.346;2024-03-23T07:30:23;0.00;0.00;0.00
62599;PMS7003;48671;48.922;2.346;2024-03-23T07:32:48;1.00;0.50;0.00
62599;PMS7003;48671;48.922;2.346;2024-03-23T07:35:14;3.00;0.00;0.00
62599;PMS7003;48671;48.922;2.346;2024-03-23T07:37:39;0.50;0.00;0.00
62599;PMS7003;48671;48.922;2.346;2024-03-23T07:40:04;1.00;0.00;0.00
62599;PMS7003;48671;48.922;2.346;2024-03-23T07:42:31;4.00;1.50;0.00
62599;PMS7003;48671;48.922;2.346;2024-03-23T07:44:56;2.33;1.00;0.00
62599;PMS7003;48671;48.922;2.346;2024-03-23T07:47:22;0.25;0.25;0.00
62599;PMS7003;48671;48.922;2.346;2024-03-23T07:49:47;2.50;1.50;0.50
62599;PMS7003;48671;48.922;2.346;2024-03-23T07:52:12;1.00;1.00;0.00
62599;PMS7003;48671;48.922;2.346;2024-03-23T07:54:38;1.00;1.00;0.33
62599;PMS7003;48671;48.922;2.346;2024-03-23T07:57:03;2.25;2.00;0.75
62599;PMS7003;48671;48.922;2.346;2024-03-23T07:59:29;2.00;0.50;0.00
62599;PMS7003;48671;48.922;2.346;2024-03-23T08:01:56;1.25;1.00;1.00
62599;PMS7003;48671;48.922;2.346;2024-03-23T08:04:22;1.00;0.75;0.00
62599;PMS7003;48671;48.922;2.346;2024-03-23T08:06:47;0.67;0.67;0.33
62599;PMS7003;48671;48.922;2.346;2024-03-23T08:09:12;1.00;1.00;0.00
62599;PMS7003;48671;48.922;2.346;2024-03-23T08:11:38;1.00;0.00;0.00
62599;PMS7003;48671;48.922;2.346;2024-03-23T08:14:04;1.00;0.00;0.00
62599;PMS7003;48671;48.922;2.346;2024-03-23T08:16:29;6.50;3.75;2.75
62599;PMS7003;48671;48.922;2.346;2024-03-23T08:18:55;3.00;0.00;0.00
62599;PMS7003;48671;48.922;2.346;2024-03-23T08:21:23;1.25;0.25;0.00
62599;PMS7003;48671;48.922;2.346;2024-03-23T08:23:50;1.00;0.00;0.00
62599;PMS7003;48671;48.922;2.346;2024-03-23T08:26:15;1.00;0.75;0.50
62599;PMS7003;48671;48.922;2.346;2024-03-23T08:28:42;1.00;1.00;0.00
62599;PMS7003;48671;48.922;2.346;2024-03-23T08:31:08;0.00;0.00;0.00
62599;PMS7003;48671;48.922;2.346;2024-03-23T08:33:34;1.75;0.00;0.00
62599;PMS7003;48671;48.922;2.346;2024-03-23T08:36:01;3.00;0.00;0.00
62599;PMS7003;48671;48.922;2.346;2024-03-23T08:38:26;1.00;1.00;0.00
62599;PMS7003;48671;48.922;2.346;2024-03-23T08:41:02;1.50;0.00;0.00
62599;PMS7003;48671;48.922;2.346;2024-03-23T08:43:28;2.00;1.00;0.00
62599;PMS7003;48671;48.922;2.346;2024-03-23T08:46:02;2.25;0.25;0.00
62599;PMS7003;48671;48.922;2.346;2024-03-23T08:48:28;0.00;0.00;0.00
62599;PMS7003;48671;48.922;2.346;2024-03-23T08:51:00;0.00;0.00;0.00
62599;PMS7003;48671;48.922;2.346;2024-03-23T08:53:27;0.00;0.00;0.00
62599;PMS7003;48671;48.922;2.346;2024-03-23T08:55:54;1.00;0.00;0.00
62599;PMS7003;48671;48.922;2.346;2024-03-23T08:58:20;0.00;0.00;0.00
62599;PMS7003;48671;48.922;2.346;2024-03-23T09:00:45;5.50;0.75;0.00
62599;PMS7003;48671;48.922;2.346;2024-03-23T09:03:11;0.00;0.00;0.00
62599;PMS7003;48671;48.922;2.346;2024-03-23T09:05:40;1.00;0.75;0.00
62599;PMS7003;48671;48.922;2.346;2024-03-23T09:08:05;1.00;1.00;0.00
62599;PMS7003;48671;48.922;2.346;2024-03-23T09:10:31;1.00;1.00;0.00
62599;PMS7003;48671;48.922;2.346;2024-03-23T09:12:57;2.00;0.50;0.00
62599;PMS7003;48671;48.922;2.346;2024-03-23T09:15:22;2.00;1.00;0.00
62599;PMS7003;48671;48.922;2.346;2024-03-23T09:17:47;0.50;0.50;0.00
62599;PMS7003;48671;48.922;2.346;2024-03-23T09:20:13;2.00;1.00;0.00
62599;PMS7003;48671;48.922;2.346;2024-03-23T09:22:38;1.00;0.00;0.00
62599;PMS7003;48671;48.922;2.346;2024-03-23T09:25:03;5.00;1.00;0.00
62599;PMS7003;48671;48.922;2.346;2024-03-23T09:27:30;1.00;1.00;0.00
62599;PMS7003;48671;48.922;2.346;2024-03-23T09:29:55;0.00;0.00;0.00
62599;PMS7003;48671;48.922;2.346;2024-03-23T09:32:20;3.00;0.00;0.00
62599;PMS7003;48671;48.922;2.346;2024-03-23T09:34:46;8.00;1.00;0.00
62599;PMS7003;48671;48.922;2.346;2024-03-23T09:37:11;2.50;1.00;0.00
62599;PMS7003;48671;48.922;2.346;2024-03-23T09:39:36;4.75;1.75;0.00
62599;PMS7003;48671;48.922;2.346;2024-03-23T09:42:02;0.67;0.00;0.00
62599;PMS7003;48671;48.922;2.346;2024-03-23T09:44:27;1.75;0.00;0.00
62599;PMS7003;48671;48.922;2.346;2024-03-23T09:46:54;0.00;0.00;0.00
62599;PMS7003;48671;48.922;2.346;2024-03-23T09:49:20;1.00;0.00;0.00
62599;PMS7003;48671;48.922;2.346;2024-03-23T09:51:46;0.50;0.00;0.00
62599;PMS7003;48671;48.922;2.346;2024-03-23T09:54:11;1.00;0.00;0.00
62599;PMS7003;48671;48.922;2.346;2024-03-23T09:56:37;0.00;0.00;0.00
62599;PMS7003;48671;48.922;2.346;2024-03-23T09:59:02;0.00;0.00;0.00
62599;PMS7003;48671;48.922;2.346;2024-03-23T10:01:31;0.00;0.00;0.00
62599;PMS7003;48671;48.922;2.346;2024-03-23T10:03:57;5.50;1.25;0.00
62599;PMS7003;48671;48.922;2.346;2024-03-23T10:06:22;3.00;0.00;0.00
62599;PMS7003;48671;48.922;2.346;2024-03-23T10:08:51;0.00;0.00;0.00
62599;PMS7003;48671;48.922;2.346;2024-03-23T10:11:18;0.00;0.00;0.00
62599;PMS7003;48671;48.922;2.346;2024-03-23T10:13:44;0.00;0.00;0.00
62599;PMS7003;48671;48.922;2.346;2024-03-23T10:16:11;0.00;0.00;0.00
62599;PMS7003;48671;48.922;2.346;2024-03-23T10:18:37;1.00;0.00;0.00
62599;PMS7003;48671;48.922;2.346;2024-03-23T10:21:10;2.25;0.00;0.00
62599;PMS7003;48671;48.922;2.346;2024-03-23T10:23:37;0.00;0.00;0.00
62599;PMS7003;48671;48.922;2.346;2024-03-23T10:26:22;0.25;0.00;0.00
62599;PMS7003;48671;48.922;2.346;2024-03-23T10:28:53;1.25;0.25;0.00
62599;PMS7003;48671;48.922;2.346;2024-03-23T10:31:21;2.00;1.00;0.00
62599;PMS7003;48671;48.922;2.346;2024-03-23T10:33:47;0.50;0.00;0.00
62599;PMS7003;48671;48.922;2.346;2024-03-23T10:36:13;2.25;0.25;0.25
62599;PMS7003;48671;48.922;2.346;2024-03-23T10:38:42;2.00;1.00;0.00
62599;PMS7003;48671;48.922;2.346;2024-03-23T10:41:09;1.25;1.00;0.25
62599;PMS7003;48671;48.922;2.346;2024-03-23T10:43:35;1.50;0.50;0.00
62599;PMS7003;48671;48.922;2.346;2024-03-23T10:46:02;2.00;1.00;0.00
62599;PMS7003;48671;48.922;2.346;2024-03-23T10:48:27;2.50;1.00;0.75
62599;PMS7003;48671;48.922;2.346;2024-03-23T10:50:53;0.00;0.00;0.00
62599;PMS7003;48671;48.922;2.346;2024-03-23T10:53:18;2.75;1.00;0.00
62599;PMS7003;48671;48.922;2.346;2024-03-23T10:55:47;2.25;0.00;0.00
62599;PMS7003;48671;48.922;2.346;2024-03-23T10:58:14;0.75;0.50;0.00
62599;PMS7003;48671;48.922;2.346;2024-03-23T11:00:41;0.50;0.50;0.00
62599;PMS7003;48671;48.922;2.346;2024-03-23T11:05:58;1.25;0.25;0.00
62599;PMS7003;48671;48.922;2.346;2024-03-23T11:08:31;2.50;1.00;0.00
62599;PMS7003;48671;48.922;2.346;2024-03-23T11:13:39;1.00;0.00;0.00
62599;PMS7003;48671;48.922;2.346;2024-03-23T11:16:14;2.00;1.00;0.00
62599;PMS7003;48671;48.922;2.346;2024-03-23T11:18:41;2.00;1.00;0.00
62599;PMS7003;48671;48.922;2.346;2024-03-23T11:21:07;0.25;0.25;0.00
62599;PMS7003;48671;48.922;2.346;2024-03-23T11:23:33;3.25;1.00;0.00
62599;PMS7003;48671;48.922;2.346;2024-03-23T11:25:58;3.00;0.00;0.00
62599;PMS7003;48671;48.922;2.346;2024-03-23T11:28:24;0.75;0.75;0.25
62599;PMS7003;48671;48.922;2.346;2024-03-23T11:30:49;1.50;0.75;0.00
62599;PMS7003;48671;48.922;2.346;2024-03-23T11:33:15;2.50;0.50;0.00
62599;PMS7003;48671;48.922;2.346;2024-03-23T11:35:41;2.00;0.00;0.00
62599;PMS7003;48671;48.922;2.346;2024-03-23T11:38:07;0.00;0.00;0.00
62599;PMS7003;48671;48.922;2.346;2024-03-23T11:40:35;0.00;0.00;0.00
62599;PMS7003;48671;48.922;2.346;2024-03-23T11:43:03;0.00;0.00;0.00
62599;PMS7003;48671;48.922;2.346;2024-03-23T11:45:35;0.25;0.25;0.00
62599;PMS7003;48671;48.922;2.346;2024-03-23T11:48:02;0.50;0.50;0.00
62599;PMS7003;48671;48.922;2.346;2024-03-23T11:50:32;0.50;0.00;0.00
62599;PMS7003;48671;48.922;2.346;2024-03-23T11:53:13;0.75;0.75;0.00
62599;PMS7003;48671;48.922;2.346;2024-03-23T11:55:41;1.25;1.25;0.25
62599;PMS7003;48671;48.922;2.346;2024-03-23T11:58:08;1.25;0.00;0.00
62599;PMS7003;48671;48.922;2.346;2024-03-23T12:00:34;1.00;1.00;0.00
62599;PMS7003;48671;48.922;2.346;2024-03-23T12:03:00;1.00;1.00;0.00
62599;PMS7003;48671;48.922;2.346;2024-03-23T12:05:26;0.00;0.00;0.00
62599;PMS7003;48671;48.922;2.346;2024-03-23T12:07:52;2.00;0.50;0.00
62599;PMS7003;48671;48.922;2.346;2024-03-23T12:10:18;0.00;0.00;0.00
62599;PMS7003;48671;48.922;2.346;2024-03-23T12:12:45;0.00;0.00;0.00
62599;PMS7003;48671;48.922;2.346;2024-03-23T12:15:10;0.00;0.00;0.00
62599;PMS7003;48671;48.922;2.346;2024-03-23T12:17:37;2.75;0.25;0.00
62599;PMS7003;48671;48.922;2.346;2024-03-23T12:20:03;2.00;0.00;0.00
62599;PMS7003;48671;48.922;2.346;2024-03-23T12:22:29;0.00;0.00;0.00
62599;PMS7003;48671;48.922;2.346;2024-03-23T12:24:55;2.00;0.50;0.00
62599;PMS7003;48671;48.922;2.346;2024-03-23T12:27:21;1.00;1.00;1.00
62599;PMS7003;48671;48.922;2.346;2024-03-23T12:29:47;2.50;0.00;0.00
62599;PMS7003;48671;48.922;2.346;2024-03-23T12:32:13;1.33;1.33;0.67
62599;PMS7003;48671;48.922;2.346;2024-03-23T12:34:39;4.50;1.25;1.00
62599;PMS7003;48671;48.922;2.346;2024-03-23T12:37:04;0.00;0.00;0.00
62599;PMS7003;48671;48.922;2.346;2024-03-23T12:39:31;2.25;0.00;0.00
62599;PMS7003;48671;48.922;2.346;2024-03-23T12:41:56;0.50;0.00;0.00
62599;PMS7003;48671;48.922;2.346;2024-03-23T12:44:22;2.33;0.00;0.00
62599;PMS7003;48671;48.922;2.346;2024-03-23T12:46:47;2.00;0.00;0.00
62599;PMS7003;48671;48.922;2.346;2024-03-23T12:49:12;3.00;0.00;0.00
62599;PMS7003;48671;48.922;2.346;2024-03-23T12:51:38;0.75;0.00;0.00
62599;PMS7003;48671;48.922;2.346;2024-03-23T12:54:04;3.00;1.75;1.00
62599;PMS7003;48671;48.922;2.346;2024-03-23T12:56:29;0.00;0.00;0.00
62599;PMS7003;48671;48.922;2.346;2024-03-23T12:58:55;0.50;0.00;0.00
62599;PMS7003;48671;48.922;2.346;2024-03-23T13:01:22;0.00;0.00;0.00
62599;PMS7003;48671;48.922;2.346;2024-03-23T13:03:48;0.00;0.00;0.00
62599;PMS7003;48671;48.922;2.346;2024-03-23T13:06:14;1.00;0.00;0.00
62599;PMS7003;48671;48.922;2.346;2024-03-23T13:08:40;1.25;1.00;0.00
62599;PMS7003;48671;48.922;2.346;2024-03-23T13:11:06;2.50;2.00;1.00
62599;PMS7003;48671;48.922;2.346;2024-03-23T13:13:38;3.00;1.00;0.00
62599;PMS7003;48671;48.922;2.346;2024-03-23T13:16:04;1.00;0.25;0.00
62599;PMS7003;48671;48.922;2.346;2024-03-23T13:18:30;0.75;0.00;0.00
62599;PMS7003;48671;48.922;2.346;2024-03-23T13:20:56;7.00;4.00;3.00
62599;PMS7003;48671;48.922;2.346;2024-03-23T13:23:21;1.25;1.25;0.25
62599;PMS7003;48671;48.922;2.346;2024-03-23T13:25:50;7.25;3.50;2.00
62599;PMS7003;48671;48.922;2.346;2024-03-23T13:28:20;4.75;2.00;1.25
62599;PMS7003;48671;48.922;2.346;2024-03-23T13:30:49;4.25;2.75;2.00
62599;PMS7003;48671;48.922;2.346;2024-03-23T13:33:18;6.75;3.00;2.00
62599;PMS7003;48671;48.922;2.346;2024-03-23T13:35:53;2.50;2.50;2.50
62599;PMS7003;48671;48.922;2.346;2024-03-23T13:38:23;4.25;4.25;2.50
62599;PMS7003;48671;48.922;2.346;2024-03-23T13:40:52;1.75;1.75;1.00
62599;PMS7003;48671;48.922;2.346;2024-03-23T13:43:18;8.00;5.00;4.00
62599;PMS7003;48671;48.922;2.346;2024-03-23T13:45:44;8.25;3.00;3.00
62599;PMS7003;48671;48.922;2.346;2024-03-23T13:48:10;10.00;10.00;6.75
62599;PMS7003;48671;48.922;2.346;2024-03-23T13:50:35;28.75;23.50;15.50
62599;PMS7003;48671;48.922;2.346;2024-03-23T13:53:00;26.00;15.50;10.00
62599;PMS7003;48671;48.922;2.346;2024-03-23T13:55:26;2.00;1.25;1.00
62599;PMS7003;48671;48.922;2.346;2024-03-23T13:57:51;12.25;12.00;8.00
62599;PMS7003;48671;48.922;2.346;2024-03-23T14:00:16;22.00;19.50;14.75
62599;PMS7003;48671;48.922;2.346;2024-03-23T14:02:43;15.75;14.50;11.00
62599;PMS7003;48671;48.922;2.346;2024-03-23T14:05:09;29.25;21.50;13.50
62599;PMS7003;48671;48.922;2.346;2024-03-23T14:07:34;24.25;15.50;10.50
62599;PMS7003;48671;48.922;2.346;2024-03-23T14:10:02;39.50;29.75;19.25
62599;PMS7003;48671;48.922;2.346;2024-03-23T14:12:28;8.50;5.00;3.25
62599;PMS7003;48671;48.922;2.346;2024-03-23T14:14:53;33.33;26.00;17.33
62599;PMS7003;48671;48.922;2.346;2024-03-23T14:17:20;111.00;89.50;50.25
62599;PMS7003;48671;48.922;2.346;2024-03-23T14:19:45;52.00;36.25;25.00
62599;PMS7003;48671;48.922;2.346;2024-03-23T14:22:10;8.00;7.00;4.00
62599;PMS7003;48671;48.922;2.346;2024-03-23T14:24:36;102.50;86.50;53.75
62599;PMS7003;48671;48.922;2.346;2024-03-23T14:27:01;68.50;51.50;35.50
62599;PMS7003;48671;48.922;2.346;2024-03-23T14:29:30;7.75;4.25;3.25
62599;PMS7003;48671;48.922;2.346;2024-03-23T14:31:55;61.00;46.50;30.25
62599;PMS7003;48671;48.922;2.346;2024-03-23T14:34:20;117.67;93.33;57.00
62599;PMS7003;48671;48.922;2.346;2024-03-23T14:36:46;163.67;127.00;70.67
62599;PMS7003;48671;48.922;2.346;2024-03-23T14:39:11;156.33;127.33;81.00
62599;PMS7003;48671;48.922;2.346;2024-03-23T14:41:37;111.50;84.50;50.75
62599;PMS7003;48671;48.922;2.346;2024-03-23T14:44:03;251.00;198.75;111.50
62599;PMS7003;48671;48.922;2.346;2024-03-23T14:46:28;172.50;145.00;89.00
62599;PMS7003;48671;48.922;2.346;2024-03-23T14:48:54;83.00;68.00;43.75
62599;PMS7003;48671;48.922;2.346;2024-03-23T14:51:20;145.25;120.50;72.00
62599;PMS7003;48671;48.922;2.346;2024-03-23T14:53:47;59.00;41.00;24.00
62599;PMS7003;48671;48.922;2.346;2024-03-23T14:56:13;28.50;22.50;13.00
62599;PMS7003;48671;48.922;2.346;2024-03-23T14:58:40;35.50;29.50;19.50
62599;PMS7003;48671;48.922;2.346;2024-03-23T15:01:07;4.00;1.00;0.00
62599;PMS7003;48671;48.922;2.346;2024-03-23T15:03:36;2.00;0.00;0.00
62599;PMS7003;48671;48.922;2.346;2024-03-23T15:06:03;1.00;0.00;0.00
62599;PMS7003;48671;48.922;2.346;2024-03-23T15:08:29;0.00;0.00;0.00
62599;PMS7003;48671;48.922;2.346;2024-03-23T15:10:58;0.25;0.25;0.00
62599;PMS7003;48671;48.922;2.346;2024-03-23T15:13:24;0.00;0.00;0.00